Latest Weather Observations for Murganella Airstrip

IDD60801

Issued at 1:31 pm CST Friday 29 May 2015 (issued every 30 minutes, with the page automatically refreshed every 10 minutes)

About weather observations | Map of weather stations | Latest weather observations for NT | Other Formats
Station Details ID: 014309 Name: MURGANELLA AIRSTRIP Lat: -11.55 Lon: 132.93 Height: 9.5 m
Data from the previous 72 hours. | See also: Recent months for locations in Northern Territory
Date/Time
CST
Temp
°C
App
Temp
°C
Dew
Point
Rel
Hum
%
Delta-T
°C
Wind Press
QNH
hPa
Press
MSL
hPa
Rain
since 9 am
mm
Dir
 
Spd
km/h
Gust
km/h
Spd
kts
Gust
kts
29/01:30pm 29.6 31.1 23.1 68 4.5 E 20 39 11 21 1012.3 1012.2 0.0
29/01:00pm 31.0 33.9 23.9 66 4.9 E 15 28 8 15 1012.5 1012.4 0.0
29/12:30pm 29.8 31.8 23.0 67 4.7 E 17 32 9 17 1013.0 1012.9 0.0
29/12:00pm 29.4 32.1 23.4 70 4.1 ESE 15 24 8 13 1013.4 1013.3 0.0
29/11:30am 29.3 32.0 23.5 71 4.0 ESE 15 32 8 17 1014.1 1014.0 0.0
29/11:00am 28.7 31.1 23.6 74 3.5 E 17 30 9 16 1014.5 1014.4 0.0
29/10:30am 28.6 31.9 23.9 75 3.2 ESE 13 19 7 10 1014.6 1014.5 0.0
29/10:00am 28.4 32.2 24.0 77 3.0 ESE 11 19 6 10 1014.6 1014.5 0.0
29/09:30am 27.6 33.4 25.8 90 1.3 SSE 6 9 3 5 1014.2 1014.1 0.0
29/09:00am 25.8 32.0 25.8 100 0.0 SSE 4 7 2 4 1014.1 1014.0 0.0
29/08:30am 24.3 30.3 24.3 100 0.0 CALM 0 0 0 0 1014.1 1014.0 0.0
29/08:00am 23.3 28.7 23.3 100 0.0 CALM 0 0 0 0 1013.8 1013.7 0.0
29/07:30am 22.9 28.1 22.9 100 0.0 CALM 0 0 0 0 1013.2 1013.1 0.0
29/07:00am 22.7 27.8 22.7 100 0.0 CALM 0 0 0 0 1012.8 1012.7 0.0
29/06:30am 22.6 27.3 22.6 100 0.0 SSW 2 2 1 1 1012.4 1012.3 0.0
29/06:00am 22.5 27.5 22.5 100 0.0 CALM 0 0 0 0 1012.2 1012.1 0.0
29/05:30am 22.3 27.2 22.3 100 0.0 CALM 0 0 0 0 1012.1 1012.0 0.0
29/05:00am 22.3 26.4 22.3 100 0.0 SSW 4 6 2 3 1011.8 1011.7 0.0
29/04:30am 21.7 25.5 21.7 100 0.0 SSW 4 6 2 3 1012.1 1012.0 0.0
29/04:00am 22.1 26.5 22.1 100 0.0 SSE 2 2 1 1 1012.0 1011.9 0.0
29/03:30am 22.1 26.1 22.1 100 0.0 SE 4 6 2 3 1012.0 1011.9 0.0
29/03:00am 22.6 27.3 22.6 100 0.0 SE 2 4 1 2 1012.2 1012.1 0.0
29/02:30am 23.2 27.4 23.2 100 0.0 SE 6 9 3 5 1012.1 1012.0 0.0
29/02:00am 23.5 27.9 23.5 100 0.0 ESE 6 11 3 6 1012.2 1012.1 0.0
29/01:30am 22.4 26.2 22.4 100 0.0 ESE 6 7 3 4 1012.6 1012.5 0.0
29/01:00am 21.6 25.4 21.6 100 0.0 SSE 4 6 2 3 1012.9 1012.8 0.0
29/12:30am 21.1 25.0 21.1 100 0.0 SSE 2 4 1 2 1013.0 1012.9 0.0
29/12:00am 20.9 25.1 20.9 100 0.0 CALM 0 0 0 0 1012.9 1012.8 0.0
 
Date/Time
CST
Temp
°C
App
Temp
°C
Dew
Point
Rel
Hum
%
Delta-T
°C
Wind Press
QNH
hPa
Press
MSL
hPa
Rain
since 9 am
mm
Dir
 
Spd
km/h
Gust
km/h
Spd
kts
Gust
kts
28/11:30pm 20.8 24.9 20.8 100 0.0 CALM 0 0 0 0 1012.8 1012.7 0.0
28/11:00pm 21.1 25.4 21.1 100 0.0 CALM 0 0 0 0 1013.0 1012.9 0.0
28/10:30pm 21.2 25.5 21.2 100 0.0 CALM 0 0 0 0 1013.2 1013.1 0.0
28/10:00pm 21.5 26.0 21.5 100 0.0 CALM 0 0 0 0 1013.0 1012.9 0.0
28/09:30pm 21.7 26.3 21.7 100 0.0 CALM 0 0 0 0 1012.9 1012.8 0.0
28/09:00pm 22.2 27.0 22.2 100 0.0 CALM 0 0 0 0 1012.9 1012.8 0.0
28/08:30pm 22.5 27.5 22.5 100 0.0 CALM 0 0 0 0 1012.6 1012.5 0.0
28/08:00pm 23.0 28.3 23.0 100 0.0 CALM 0 0 0 0 1012.2 1012.1 0.0
28/07:30pm 23.9 29.3 23.2 96 0.5 CALM 0 0 0 0 1012.0 1011.9 0.0
28/07:00pm 25.0 30.0 22.5 86 1.7 CALM 0 0 0 0 1011.8 1011.7 0.0
28/06:30pm 26.5 31.3 22.8 80 2.5 ENE 2 4 1 2 1011.5 1011.4 0.0
28/06:00pm 27.8 31.9 23.0 75 3.3 E 6 9 3 5 1011.4 1011.3 0.0
28/05:30pm 29.0 32.9 23.0 70 4.1 ENE 7 11 4 6 1011.3 1011.2 0.0
28/05:00pm 29.6 32.7 22.1 64 5.1 E 9 19 5 10 1011.1 1011.0 0.0
28/04:30pm 29.7 31.5 21.9 63 5.3 E 15 26 8 14 1011.2 1011.1 0.0
28/04:00pm 31.1 33.8 22.1 58 6.1 ENE 11 22 6 12 1011.2 1011.1 0.0
28/03:30pm 31.0 33.8 22.3 60 5.9 E 11 20 6 11 1011.2 1011.1 0.0
28/03:00pm 31.1 33.8 22.1 58 6.1 E 11 22 6 12 1011.4 1011.3 0.0
28/02:30pm 30.7 33.1 22.3 61 5.7 ESE 13 22 7 12 1011.5 1011.4 0.0
28/02:00pm 29.1 32.7 22.3 66 4.6 ESE 7 15 4 8 1011.9 1011.8 0.0
28/01:30pm 29.1 31.5 21.6 64 5.0 E 11 22 6 12 1012.4 1012.3 0.0
28/01:00pm 29.6 31.6 20.7 58 5.9 ENE 11 22 6 12 1012.8 1012.7 0.0
28/12:30pm 29.9 31.9 21.6 61 5.6 E 13 20 7 11 1013.3 1013.2 0.0
28/12:00pm 29.9 32.2 21.3 60 5.8 E 11 19 6 10 1013.4 1013.3 0.0
28/11:30am 28.3 30.5 21.1 65 4.8 E 11 20 6 11 1014.0 1013.9 0.0
28/11:00am 28.2 30.6 22.9 73 3.6 E 15 24 8 13 1014.3 1014.2 0.0
28/10:30am 28.2 30.7 23.1 74 3.5 E 15 22 8 12 1014.5 1014.4 0.0
28/10:00am 28.9 32.5 23.8 74 3.5 ENE 11 24 6 13 1014.6 1014.5 0.0
28/09:30am 27.9 30.6 22.8 74 3.5 ENE 13 35 7 19 1014.6 1014.5 0.0
28/09:00am 27.9 31.5 23.7 78 2.9 ENE 11 20 6 11 1014.4 1014.3 0.0
28/08:30am 26.3 32.1 26.1 99 0.1 ESE 7 15 4 8 1014.0 1013.9 0.0
28/08:00am 24.5 29.5 24.5 100 0.0 ESE 6 9 3 5 1013.6 1013.5 0.0
28/07:30am 22.2 27.0 22.2 100 0.0 CALM 0 4 0 2 1013.3 1013.2 0.0
28/07:00am 21.7 25.9 21.7 100 0.0 SE 2 4 1 2 1012.9 1012.8 0.0
28/06:30am 22.3 26.8 22.3 100 0.0 SE 2 2 1 1 1012.6 1012.5 0.0
28/06:00am 22.8 27.2 22.8 100 0.0 SE 4 6 2 3 1012.3 1012.2 0.0
28/05:30am 23.2 27.8 23.2 100 0.0 SE 4 6 2 3 1012.2 1012.1 0.0
28/05:00am 23.7 28.6 23.7 100 0.0 SE 4 6 2 3 1011.9 1011.8 0.0
28/04:30am 24.3 29.2 24.3 100 0.0 SE 6 13 3 7 1011.7 1011.6 0.0
28/04:00am 25.0 30.1 25.0 100 0.0 SE 7 11 4 6 1011.6 1011.5 0.0
28/03:30am 25.5 31.1 25.5 100 0.0 ESE 6 9 3 5 1011.6 1011.5 0.0
28/03:00am 25.5 30.9 25.5 100 0.0 E 7 15 4 8 1011.8 1011.7 0.0
28/02:30am 25.3 30.8 25.3 100 0.0 E 6 11 3 6 1011.8 1011.7 0.0
28/02:00am 25.1 30.5 25.1 100 0.0 ESE 6 9 3 5 1012.2 1012.1 0.0
28/01:30am 25.1 30.9 25.1 100 0.0 ESE 4 6 2 3 1012.5 1012.4 0.0
28/01:00am 25.0 30.7 25.0 100 0.0 ESE 4 6 2 3 1012.5 1012.4 0.0
28/12:30am 25.3 31.2 25.3 100 0.0 E 4 7 2 4 1012.7 1012.6 0.0
28/12:00am 25.3 31.6 25.3 100 0.0 ENE 2 6 1 3 1012.9 1012.8 0.0
 
Date/Time
CST
Temp
°C
App
Temp
°C
Dew
Point
Rel
Hum
%
Delta-T
°C
Wind Press
QNH
hPa
Press
MSL
hPa
Rain
since 9 am
mm
Dir
 
Spd
km/h
Gust
km/h
Spd
kts
Gust
kts
27/11:30pm 25.4 31.3 25.4 100 0.0 E 4 6 2 3 1013.0 1012.9 0.0
27/11:00pm 25.7 31.8 25.7 100 0.0 E 4 6 2 3 1013.0 1012.9 0.0
27/10:30pm 26.0 32.0 26.0 100 0.0 E 6 9 3 5 1012.9 1012.8 0.0
27/10:00pm 26.2 32.7 26.2 100 0.0 E 4 7 2 4 1013.0 1012.9 0.0
27/09:30pm 26.2 32.7 26.2 100 0.0 ENE 4 7 2 4 1013.1 1013.0 0.0
27/09:00pm 26.4 32.6 26.4 100 0.0 E 6 11 3 6 1012.9 1012.8 0.0
27/08:30pm 26.6 32.8 26.4 99 0.1 E 6 7 3 4 1012.6 1012.5 0.0
27/08:00pm 27.0 32.7 25.6 92 1.0 E 6 11 3 6 1012.3 1012.2 0.0
27/07:30pm 27.3 32.7 25.5 90 1.3 ENE 7 11 4 6 1011.9 1011.8 0.0
27/07:00pm 27.5 32.6 25.5 89 1.4 ENE 9 20 5 11 1011.7 1011.6 0.0
27/06:30pm 27.5 31.9 24.4 83 2.2 NE 9 13 5 7 1011.5 1011.4 0.0
27/06:00pm 27.9 31.7 22.8 74 3.5 ENE 7 19 4 10 1011.3 1011.2 0.0
27/05:30pm 28.7 31.4 22.2 68 4.4 ENE 11 20 6 11 1011.0 1010.9 0.0
27/05:00pm 29.8 32.2 21.5 61 5.6 ENE 11 20 6 11 1010.7 1010.6 0.0
27/04:30pm 30.0 31.6 21.4 60 5.8 ENE 15 26 8 14 1010.7 1010.6 0.0
27/04:00pm 30.3 32.4 21.7 60 5.8 E 13 32 7 17 1010.6 1010.5 0.0
27/03:30pm 30.3 32.1 21.9 60 5.7 E 15 33 8 18 1010.7 1010.6 0.0
27/03:00pm 30.4 31.3 21.5 59 6.0 E 19 33 10 18 1011.0 1010.9 0.0
27/02:30pm 30.9 32.2 21.7 58 6.2 E 17 33 9 18 1011.3 1011.2 0.0
27/02:00pm 30.8 31.9 21.9 59 6.0 ENE 19 37 10 20 1011.9 1011.8 0.0
27/01:30pm 30.6 32.0 21.9 59 5.9 ENE 17 30 9 16 1012.6 1012.5 0.0
27/01:00pm 31.3 32.6 22.3 58 6.1 ENE 19 35 10 19 1013.1 1013.0 0.0
27/12:30pm 31.3 32.0 21.2 55 6.8 E 19 32 10 17 1013.4 1013.3 0.0
27/12:00pm 31.3 32.2 20.9 54 7.0 E 17 32 9 17 1013.7 1013.6 0.0
27/11:30am 31.9 34.3 22.3 56 6.5 E 13 20 7 11 1013.9 1013.8 0.0
27/11:00am 30.7 32.1 21.8 59 6.0 E 17 28 9 15 1014.3 1014.2 0.0
27/10:30am 29.8 32.0 21.2 60 5.7 E 11 19 6 10 1014.5 1014.4 0.0
27/10:00am 29.2 31.4 21.2 62 5.3 E 11 20 6 11 1014.6 1014.5 0.0
27/09:30am 28.0 31.1 22.2 70 3.9 ESE 9 19 5 10 1014.8 1014.7 0.0
27/09:00am 27.3 30.8 23.5 80 2.6 ESE 11 20 6 11 1014.6 1014.5 0.0
27/08:30am 25.2 31.0 25.2 100 0.0 SE 4 6 2 3 1014.3 1014.2 0.0
27/08:00am 23.1 27.7 23.1 100 0.0 SE 4 6 2 3 1014.0 1013.9 0.0
27/07:30am 21.4 25.1 21.4 100 0.0 SE 4 6 2 3 1013.7 1013.6 0.0
27/07:00am 20.6 24.2 20.6 100 0.0 SE 2 4 1 2 1013.3 1013.2 0.0
27/06:30am 20.6 24.6 20.6 100 0.0 CALM 0 0 0 0 1013.1 1013.0 0.0
27/06:00am 21.2 24.8 21.2 100 0.0 SSE 4 6 2 3 1012.9 1012.8 0.0
27/05:30am 21.5 25.2 21.5 100 0.0 SE 4 6 2 3 1012.6 1012.5 0.0
27/05:00am 22.6 27.2 22.4 99 0.1 SE 2 4 1 2 1012.5 1012.4 0.0
27/04:30am 23.3 27.3 22.1 93 0.8 ESE 4 6 2 3 1012.6 1012.5 0.0
27/04:00am 24.3 28.0 22.6 90 1.1 ESE 7 11 4 6 1012.6 1012.5 0.0
27/03:30am 24.5 28.8 23.3 93 0.8 SE 6 11 3 6 1012.9 1012.8 0.0
27/03:00am 24.8 29.6 24.1 96 0.5 ESE 6 9 3 5 1013.1 1013.0 0.0
27/02:30am 25.1 30.3 25.1 100 0.0 ESE 7 11 4 6 1013.6 1013.5 0.0
27/02:00am 24.9 30.2 24.9 100 0.0 ESE 6 13 3 7 1013.9 1013.8 0.0
27/01:30am 24.4 29.3 24.4 100 0.0 ESE 6 7 3 4 1014.2 1014.1 0.0
27/01:00am 23.2 28.2 23.2 100 0.0 ESE 2 6 1 3 1014.5 1014.4 0.0
27/12:30am 23.4 28.9 23.4 100 0.0 CALM 0 0 0 0 1014.5 1014.4 0.0
27/12:00am 23.7 29.4 23.7 100 0.0 CALM 0 0 0 0 1014.6 1014.5 0.0
 
Date/Time
CST
Temp
°C
App
Temp
°C
Dew
Point
Rel
Hum
%
Delta-T
°C
Wind Press
QNH
hPa
Press
MSL
hPa
Rain
since 9 am
mm
Dir
 
Spd
km/h
Gust
km/h
Spd
kts
Gust
kts
26/11:30pm 23.9 29.3 23.9 100 0.0 ESE 2 4 1 2 1014.8 1014.7 0.0
26/11:00pm 24.0 29.8 24.0 100 0.0 CALM 0 0 0 0 1015.1 1015.0 0.0
26/10:30pm 24.4 30.5 24.4 100 0.0 CALM 0 0 0 0 1014.9 1014.8 0.0
26/10:00pm 24.8 31.1 24.8 100 0.0 CALM 0 0 0 0 1014.9 1014.8 0.0
26/09:30pm 25.2 31.4 25.2 100 0.0 E 2 4 1 2 1014.9 1014.8 0.0
26/09:00pm 25.5 31.9 25.5 100 0.0 E 2 4 1 2 1014.6 1014.5 0.0
26/08:30pm 25.6 32.4 25.6 100 0.0 CALM 0 0 0 0 1014.4 1014.3 0.0
26/08:00pm 26.1 33.3 26.1 100 0.0 CALM 0 0 0 0 1014.1 1014.0 0.0
26/07:30pm 26.5 33.5 26.5 100 0.0 E 2 4 1 2 1013.6 1013.5 0.0
26/07:00pm 26.8 33.7 26.8 100 0.0 NE 4 7 2 4 1013.4 1013.3 0.0
26/06:30pm 27.3 33.3 26.4 95 0.6 ENE 7 13 4 7 1012.8 1012.7 0.0
26/06:00pm 28.0 33.0 24.8 83 2.2 ENE 7 13 4 7 1012.5 1012.4 0.0
26/05:30pm 29.3 33.4 24.0 73 3.7 ENE 9 17 5 9 1012.2 1012.1 0.0
26/05:00pm 30.4 34.7 24.3 70 4.3 NE 9 15 5 8 1012.2 1012.1 0.0
26/04:30pm 31.2 35.1 23.6 64 5.3 E 9 17 5 9 1012.0 1011.9 0.0
26/04:00pm 31.3 34.2 23.1 61 5.6 ENE 13 20 7 11 1012.1 1012.0 0.0
26/03:30pm 31.7 33.8 22.4 58 6.3 ENE 15 26 8 14 1012.2 1012.1 0.0
26/03:00pm 32.2 34.4 22.6 57 6.6 ENE 15 28 8 15 1012.2 1012.1 0.0
26/02:30pm 32.4 34.7 22.8 57 6.6 ENE 15 26 8 14 1012.5 1012.4 0.0
26/02:00pm 32.1 34.2 22.5 57 6.6 E 15 26 8 14 1013.0 1012.9 0.0

Other Formats:

Comma delimited format used in spreadsheet applications
http://www.bom.gov.au/fwo/IDD60801/IDD60801.94109.axf

JavaScript Object Notation format (JSON) in row-major order
http://www.bom.gov.au/fwo/IDD60801/IDD60801.94109.json